Wilson Creek, WA (98860)

5:38 AM PDT on July 25, 2014 (GMT -0700)
Adrian (KWASOAPL2) Elev 1201 ft | 47.39 °N, 119.38 °W | Change Station

Current weather conditions updated 3 seconds ago

Clear
Clear
48.4 °F
Feels Like 48 °F
N
0.0
Wind Variable Wind from ESE
Gusts 0.0 mph

Today is forecast to be nearly the same temperature as yesterday.

Today
High -- | Low -- °F
--% Chance of Precip.
Yesterday
High -- | Low -- °F
Precip. -- in
5:26 AM 8:39 PM
Waning Crescent, 2% visible
Pressure 30.07 in
Visibility 10.0 miles
Clouds Clear
Windchill 48 °F
Dew Point 43 °F
Humidity 82%
Rainfall 0.00 in
Snow Depth Not available.
UV 0 out of 12
Pollen 5.70 out of 12
Air Quality Not available.
Flu Activity Not available.
METAR KMWH 251152Z AUTO 15004KT 10SM CLR 10/08 A3008 RMK AO2 SLP182 T01000078 10172 20100 53001

More Conditions Fewer Conditions

Pressure 30.07 in
Visibility 10.0 miles
Clouds Clear
Windchill 48 °F
Dew Point 43 °F
Humidity 82%
Rainfall 0.00 in
Snow Depth Not available.
UV 0 out of 12
Pollen 5.70 out of 12
Air Quality Not available.
Flu Activity Not available.
METAR KMWH 251152Z AUTO 15004KT 10SM CLR 10/08 A3008 RMK AO2 SLP182 T01000078 10172 20100 53001

More Conditions Fewer Conditions

10-Day Weather Forecast

Almanac

Astronomy

Jul. 25, 2014 Rise Set
Actual Time 5:26 AM PDT 8:39 PM PDT
Civil Twilight 4:49 AM PDT 9:16 PM PDT
Nautical Twilight 4:00 AM PDT 10:04 PM PDT
Astronomical Twilight 2:59 AM PDT 11:04 PM PDT
Moon 4:32 AM PDT 7:35 PM PDT
Length of Visible Light 16h 26m
Length of Day
15h 13m
Tomorrow will be 2m 23s shorter.
Waning Crescent, 2% of the Moon is Illuminated
Today
Waning Crescent
Jul 26
New
Aug 3
First Quarter
Aug 10
Full
Aug 17
Last Quarter

Today's Extremes

State Highs State Lows

Community

WunderPhotos

Upload Photos

1,737,303 photos uploaded!

Nearby

Snow Depth

Station Depth Elevation
Trough 0 in 5300 ft
Upper Wheeler 0 in 4400 ft
Grouse Camp 0 in 5380 ft
Moses Mountain 1 in 5300 ft
Blewett Pass 0 in 4270 ft

Earthquake Activity

City Distance Mag. Time & Date
No recent earthquake activity has been reported nearby.
Minimum magnitude displayed is 2.5.

Coastal Water Temperatures

Place Temperature
No Stations Reporting

Nearby Weather Stations

Station Location Temp. Windchill Dew Point Humidity Wind Precip. Elev Updated Type
Adrian, Soap Lake, WA 48.4 °F 48 °F 43 °F 82% ESE  at  0.0 mph 0.00 in / hr 1201 ft 5:37 AM PDT Rapid Fire
MesoWest Soap Lake , Soap Lake, WA 59 °F - 44 °F 57% ESE  at  2 mph 0.00 in / hr 1102 ft 4:15 AM PDT MADIS
Civic Center, Moses Lake, WA 50.0 °F - 47 °F 90% SE  at  1.0 mph 0.00 in / hr 1050 ft 5:37 AM PDT Rapid Fire
MesoWest Warden Interchange , Warden, WA 43 °F 43 °F 41 °F 93% NE  at  2 mph 0.00 in / hr 1138 ft 4:15 AM PDT MADIS

Show More Stations Show Fewer Stations